createdAt,value
2018-01-10T04:30:15.684Z,1.10
2018-01-10T04:32:43.391Z,1.10
2018-01-10T04:35:11.050Z,1.20
2018-01-10T04:37:38.732Z,1.20
2018-01-10T04:40:07.156Z,1.30
2018-01-10T04:42:34.860Z,1.30
2018-01-10T04:45:02.544Z,1.30
2018-01-10T04:47:31.032Z,1.50
2018-01-10T04:49:58.684Z,1.40
2018-01-10T04:52:27.105Z,1.40
2018-01-10T04:54:54.788Z,1.40
2018-01-10T04:57:22.444Z,1.50
2018-01-10T04:59:50.149Z,1.50
2018-01-10T05:02:17.834Z,1.60
2018-01-10T05:04:45.524Z,1.70
2018-01-10T05:07:13.148Z,1.70
2018-01-10T05:09:40.795Z,1.90
2018-01-10T05:12:08.471Z,1.80
2018-01-10T05:14:36.148Z,1.70
2018-01-10T05:17:03.780Z,1.70
2018-01-10T05:19:31.431Z,1.70
2018-01-10T05:21:59.873Z,1.80
2018-01-10T05:24:27.524Z,1.80
2018-01-10T05:26:55.152Z,1.80
2018-01-10T05:29:22.884Z,1.90
2018-01-10T05:31:51.303Z,1.90
2018-01-10T05:34:18.960Z,1.90
2018-01-10T05:36:46.612Z,1.90
2018-01-10T05:39:14.259Z,1.90
2018-01-10T05:41:41.912Z,2.10
2018-01-10T05:44:10.364Z,2.00
2018-01-10T05:46:37.999Z,2.00
2018-01-10T05:49:05.757Z,2.10
2018-01-10T05:51:33.420Z,1.90
2018-01-10T05:54:01.068Z,1.70
2018-01-10T05:56:28.719Z,1.60
2018-01-10T05:58:56.400Z,1.50
2018-01-10T06:01:24.821Z,1.40
2018-01-10T06:03:53.220Z,1.40
2018-01-10T06:06:21.021Z,1.40
2018-01-10T06:08:48.700Z,1.40
2018-01-10T06:11:16.444Z,1.30
2018-01-10T06:13:44.133Z,1.30
2018-01-10T06:16:11.765Z,1.30
2018-01-10T06:18:39.422Z,1.30
2018-01-10T06:21:07.108Z,1.30
2018-01-10T06:23:34.764Z,1.30
2018-01-10T06:26:02.440Z,1.20
2018-01-10T06:28:30.071Z,1.20
2018-01-10T06:30:57.700Z,1.30
2018-01-10T06:33:25.372Z,1.30
2018-01-10T06:35:53.005Z,1.40
2018-01-10T06:38:21.520Z,1.30
2018-01-10T06:40:49.160Z,1.30
2018-01-10T06:43:16.784Z,1.30
2018-01-10T06:45:44.480Z,1.30
2018-01-10T06:48:12.139Z,1.30
2018-01-10T06:50:39.773Z,1.40
2018-01-10T06:53:08.216Z,1.60
2018-01-10T06:55:35.869Z,1.60
2018-01-10T06:58:03.497Z,1.60
2018-01-10T07:00:31.177Z,1.60
2018-01-10T07:02:58.835Z,1.70
2018-01-10T07:05:26.492Z,1.70
2018-01-10T07:07:54.220Z,1.80
2018-01-10T07:10:22.640Z,1.60
2018-01-10T07:12:50.322Z,1.60
2018-01-10T07:15:18.002Z,1.60
2018-01-10T07:17:45.633Z,1.60
2018-01-10T07:20:13.327Z,1.50
2018-01-10T07:22:40.980Z,1.50
2018-01-10T07:25:08.637Z,1.50
2018-01-10T07:27:36.338Z,1.60
2018-01-10T07:30:04.621Z,1.60
2018-01-10T07:32:32.253Z,1.50
2018-01-10T07:35:00.676Z,1.40
2018-01-10T07:37:28.324Z,1.40
2018-01-10T07:39:55.956Z,1.50
2018-01-10T07:42:24.392Z,1.80
2018-01-10T07:44:52.024Z,1.80
2018-01-10T07:47:19.702Z,1.90
2018-01-10T07:49:47.328Z,1.90
2018-01-10T07:52:14.958Z,2.00
2018-01-10T07:54:42.632Z,1.90
2018-01-10T07:57:11.028Z,1.80
2018-01-10T07:59:38.832Z,1.80
2018-01-10T08:02:06.464Z,1.90
2018-01-10T08:04:34.116Z,2.10
2018-01-10T08:07:01.824Z,2.20
2018-01-10T08:09:29.459Z,2.10
2018-01-10T08:11:57.084Z,2.10
2018-01-10T08:14:25.539Z,2.30
2018-01-10T08:16:53.187Z,2.30
2018-01-10T08:19:20.852Z,2.40
2018-01-10T08:21:48.552Z,2.50
2018-01-10T08:24:16.188Z,2.60
2018-01-10T08:26:43.832Z,2.70
2018-01-10T08:29:12.320Z,2.70
2018-01-10T08:31:40.848Z,2.60
2018-01-10T08:34:08.507Z,2.60
2018-01-10T08:36:36.169Z,2.70
2018-01-10T08:39:03.796Z,2.60
2018-01-10T08:41:32.217Z,2.60
2018-01-10T08:43:59.872Z,2.60
2018-01-10T08:46:27.524Z,2.60
2018-01-10T08:48:55.219Z,2.70
2018-01-10T08:51:22.857Z,2.80
2018-01-10T08:53:50.508Z,2.80
2018-01-10T08:56:18.213Z,2.80
2018-01-10T08:58:45.864Z,2.70
2018-01-10T09:01:15.224Z,2.70
2018-01-10T09:03:42.879Z,2.70
2018-01-10T09:06:10.529Z,2.80
2018-01-10T09:08:38.953Z,2.90
2018-01-10T09:11:06.648Z,2.90
2018-01-10T09:13:34.276Z,3.00
2018-01-10T09:16:01.900Z,3.00
2018-01-10T09:18:29.573Z,3.00
2018-01-10T09:20:57.200Z,3.00
2018-01-10T09:23:25.637Z,3.00
2018-01-10T09:25:53.344Z,3.00
2018-01-10T09:28:21.763Z,3.10
2018-01-10T09:30:49.451Z,3.10
2018-01-10T09:33:17.259Z,3.10
2018-01-10T09:35:45.746Z,3.00
2018-01-10T09:38:13.404Z,3.10
2018-01-10T09:40:41.270Z,3.00
2018-01-10T09:43:09.564Z,3.00
2018-01-10T09:45:37.346Z,3.10
2018-01-10T09:48:05.094Z,3.20
2018-01-10T09:50:32.744Z,3.40
2018-01-10T09:53:00.476Z,3.60
2018-01-10T09:55:28.896Z,3.90
2018-01-10T09:57:56.529Z,3.80
2018-01-10T10:00:24.227Z,4.00
2018-01-10T10:02:52.112Z,4.10
2018-01-10T10:05:19.901Z,4.20
2018-01-10T10:07:48.543Z,4.20
2018-01-10T10:10:17.072Z,4.20
2018-01-10T10:12:45.566Z,4.30
2018-01-10T10:15:13.332Z,4.30
2018-01-10T10:17:41.088Z,4.40
2018-01-10T10:20:08.859Z,4.40
2018-01-10T10:22:36.576Z,4.50
2018-01-10T10:25:04.232Z,4.50
2018-01-10T10:27:31.908Z,4.60
2018-01-10T10:29:59.591Z,4.60
2018-01-10T10:32:28.009Z,4.80
2018-01-10T10:34:55.668Z,4.80
2018-01-10T10:37:23.344Z,4.90
2018-01-10T10:39:50.976Z,5.00
2018-01-10T10:42:18.610Z,5.10
2018-01-10T10:44:47.078Z,5.40
2018-01-10T10:47:15.477Z,5.50
2018-01-10T10:49:43.113Z,5.50
2018-01-10T10:52:11.580Z,5.80
2018-01-10T10:54:39.209Z,5.80
2018-01-10T10:57:06.864Z,5.90
2018-01-10T10:59:34.526Z,5.90
2018-01-10T11:02:02.177Z,6.00
2018-01-10T11:04:32.299Z,6.10
2018-01-10T11:07:00.350Z,6.10
2018-01-10T11:09:28.076Z,6.20
2018-01-10T11:11:56.556Z,6.30
2018-01-10T11:14:24.212Z,6.30
2018-01-10T11:16:51.868Z,6.40
2018-01-10T11:19:19.534Z,6.50
2018-01-10T11:21:47.171Z,6.60
2018-01-10T11:24:14.830Z,6.70
2018-01-10T11:26:42.544Z,6.80
2018-01-10T11:29:10.173Z,6.90
2018-01-10T11:31:37.811Z,6.90
2018-01-10T11:34:05.545Z,7.00
2018-01-10T11:36:33.218Z,7.00
2018-01-10T11:39:00.840Z,7.00
2018-01-10T11:41:29.251Z,7.10
2018-01-10T11:43:56.873Z,7.10
2018-01-10T11:46:25.264Z,7.20
2018-01-10T11:48:52.956Z,7.20
2018-01-10T11:51:20.577Z,7.20
2018-01-10T11:53:48.984Z,7.30
2018-01-10T11:56:16.673Z,7.30
2018-01-10T11:58:44.321Z,7.30
2018-01-10T12:01:11.949Z,7.30
2018-01-10T12:03:39.616Z,7.20
2018-01-10T12:06:07.293Z,7.20
2018-01-10T12:08:35.112Z,7.20
2018-01-10T12:11:03.683Z,7.40
2018-01-10T12:13:31.315Z,7.30
2018-01-10T12:15:59.008Z,7.40
2018-01-10T12:18:26.675Z,7.40
2018-01-10T12:20:55.112Z,7.50
2018-01-10T12:23:22.801Z,7.50
2018-01-10T12:25:50.448Z,7.50
2018-01-10T12:28:18.096Z,7.60
2018-01-10T12:30:45.800Z,7.60
2018-01-10T12:33:14.220Z,7.60
2018-01-10T12:35:41.893Z,7.60
2018-01-10T12:38:09.593Z,7.70
2018-01-10T12:40:37.993Z,7.60
2018-01-10T12:43:05.616Z,7.60
2018-01-10T12:45:33.296Z,7.60
2018-01-10T12:48:01.707Z,7.50
2018-01-10T12:50:29.361Z,7.50
2018-01-10T12:52:57.040Z,7.60
2018-01-10T12:55:24.710Z,7.70
2018-01-10T12:57:52.340Z,7.70
2018-01-10T13:00:20.008Z,7.70
2018-01-10T13:02:47.656Z,7.70
2018-01-10T13:05:15.284Z,7.70
2018-01-10T13:07:42.956Z,7.70
2018-01-10T13:10:11.348Z,7.70
2018-01-10T13:12:39.827Z,7.70
2018-01-10T13:15:08.214Z,7.60
2018-01-10T13:17:35.856Z,7.60
2018-01-10T13:20:04.537Z,7.60
2018-01-10T13:22:32.932Z,7.60
2018-01-10T13:25:00.575Z,7.60
2018-01-10T13:27:29.034Z,7.70
2018-01-10T13:29:56.728Z,7.60
2018-01-10T13:32:25.128Z,7.70
2018-01-10T13:34:52.908Z,7.70
2018-01-10T13:37:20.555Z,7.70
2018-01-10T13:39:48.200Z,7.70
2018-01-10T13:42:15.889Z,7.60
2018-01-10T13:44:43.545Z,7.60
2018-01-10T13:47:11.184Z,7.60
2018-01-10T13:49:38.878Z,7.50
2018-01-10T13:52:07.297Z,7.50
2018-01-10T13:54:35.755Z,7.50
2018-01-10T13:57:03.600Z,7.40
2018-01-10T13:59:31.234Z,7.50
2018-01-10T14:01:58.895Z,7.60
2018-01-10T14:04:26.604Z,7.60
2018-01-10T14:06:54.233Z,7.60
2018-01-10T14:09:21.880Z,7.60
2018-01-10T14:11:49.548Z,7.60
2018-01-10T14:14:17.172Z,7.50
2018-01-10T14:16:45.600Z,7.30
2018-01-10T14:19:13.224Z,7.30
2018-01-10T14:21:40.873Z,7.20
2018-01-10T14:24:09.332Z,7.10
2018-01-10T14:26:36.983Z,7.00
2018-01-10T14:29:04.613Z,7.00
2018-01-10T14:31:32.288Z,6.90
2018-01-10T14:33:59.908Z,6.90
2018-01-10T14:36:27.556Z,7.00
2018-01-10T14:38:57.004Z,6.90
2018-01-10T14:41:24.676Z,6.90
2018-01-10T14:43:52.301Z,6.80
2018-01-10T14:46:20.175Z,6.70
2018-01-10T14:48:47.808Z,6.60
2018-01-10T14:51:15.432Z,6.50
2018-01-10T14:53:43.133Z,6.50
2018-01-10T14:56:10.764Z,6.30
2018-01-10T14:58:38.424Z,6.10
2018-01-10T15:01:06.100Z,5.90
2018-01-10T15:03:34.493Z,5.50
2018-01-10T15:06:02.165Z,5.50
2018-01-10T15:08:29.789Z,5.40
2018-01-10T15:10:58.180Z,5.10
2018-01-10T15:13:26.618Z,4.90
2018-01-10T15:15:54.240Z,4.90
2018-01-10T15:18:21.864Z,4.80
2018-01-10T15:20:49.532Z,4.70
2018-01-10T15:23:17.920Z,4.50
2018-01-10T15:25:46.304Z,4.40
2018-01-10T15:28:13.957Z,4.40
2018-01-10T15:30:42.344Z,4.40
2018-01-10T15:33:09.988Z,4.40
2018-01-10T15:35:38.379Z,4.30
2018-01-10T15:38:06.084Z,4.30
2018-01-10T15:40:33.725Z,4.20
2018-01-10T15:43:01.358Z,4.10
2018-01-10T15:45:29.046Z,4.00
2018-01-10T15:47:56.679Z,3.90
2018-01-10T15:50:24.352Z,3.80
2018-01-10T15:52:51.980Z,3.70
2018-01-10T15:55:20.372Z,3.40
2018-01-10T15:57:48.869Z,3.30
2018-01-10T16:00:16.596Z,3.30
2018-01-10T16:02:45.049Z,3.20
2018-01-10T16:05:12.678Z,3.20
2018-01-10T16:07:40.309Z,3.10
2018-01-10T16:10:08.729Z,3.00
2018-01-10T16:12:36.812Z,2.90
2018-01-10T16:15:05.657Z,2.80
2018-01-10T16:17:33.416Z,2.80
2018-01-10T16:20:01.115Z,2.80
2018-01-10T16:22:29.576Z,2.70
2018-01-10T16:24:57.200Z,2.70
2018-01-10T16:27:25.746Z,2.60
2018-01-10T16:29:54.236Z,2.50
2018-01-10T16:32:21.956Z,2.50
2018-01-10T16:34:49.584Z,2.50
2018-01-10T16:37:17.996Z,2.30
2018-01-10T16:39:45.625Z,2.30
2018-01-10T16:42:14.160Z,2.30
2018-01-10T16:44:41.940Z,2.30
2018-01-10T16:47:09.985Z,2.30
2018-01-10T16:49:37.624Z,2.20
2018-01-10T16:52:05.252Z,2.20
2018-01-10T16:54:33.805Z,2.20
2018-01-10T16:57:01.432Z,2.20
2018-01-10T16:59:29.116Z,2.10
2018-01-10T17:01:56.811Z,2.00
2018-01-10T17:04:24.460Z,2.00
2018-01-10T17:06:52.125Z,2.00
2018-01-10T17:09:19.868Z,2.00
2018-01-10T17:11:47.638Z,1.90
2018-01-10T17:14:15.322Z,1.80
2018-01-10T17:16:42.970Z,1.80
2018-01-10T17:19:10.609Z,1.70
2018-01-10T17:21:38.520Z,1.60
2018-01-10T17:24:06.921Z,1.60
2018-01-10T17:26:34.588Z,1.60
2018-01-10T17:29:02.212Z,1.50
2018-01-10T17:31:30.629Z,1.50
2018-01-10T17:33:58.252Z,1.50
2018-01-10T17:36:26.640Z,1.50
2018-01-10T17:38:55.302Z,1.40
2018-01-10T17:41:22.928Z,1.40
2018-01-10T17:43:50.562Z,1.30
2018-01-10T17:46:18.212Z,1.40
2018-01-10T17:48:45.894Z,1.40
2018-01-10T17:51:13.609Z,1.30
2018-01-10T17:53:42.107Z,1.30
2018-01-10T17:56:09.892Z,1.20
2018-01-10T17:58:37.593Z,1.20
2018-01-10T18:01:06.365Z,1.20
2018-01-10T18:03:34.086Z,1.20
2018-01-10T18:06:01.791Z,1.10
2018-01-10T18:08:29.558Z,1.10
2018-01-10T18:10:57.327Z,1.10
2018-01-10T18:13:25.185Z,1.10
2018-01-10T18:15:53.009Z,1.00
2018-01-10T18:18:20.948Z,1.10
2018-01-10T18:20:48.859Z,1.10
2018-01-10T18:23:16.769Z,1.00
2018-01-10T18:25:44.670Z,1.00
2018-01-10T18:28:12.557Z,0.90
2018-01-10T18:30:40.441Z,1.00
2018-01-10T18:33:09.089Z,1.00
2018-01-10T18:35:36.935Z,1.00
2018-01-10T18:38:04.760Z,1.10
2018-01-10T18:40:32.673Z,1.10
2018-01-10T18:43:00.860Z,1.00
2018-01-10T18:45:28.760Z,1.00
2018-01-10T18:47:57.469Z,0.90
2018-01-10T18:50:25.401Z,0.90
2018-01-10T18:52:56.234Z,0.90
2018-01-10T18:55:25.039Z,0.80
2018-01-10T18:57:53.760Z,0.70
2018-01-10T19:00:21.704Z,0.70
2018-01-10T19:02:49.735Z,0.70
2018-01-10T19:05:17.679Z,0.70
2018-01-10T19:07:46.389Z,0.60
2018-01-10T19:10:14.431Z,0.60
2018-01-10T19:12:42.387Z,0.50
2018-01-10T19:15:10.309Z,0.50
2018-01-10T19:17:38.966Z,0.40
2018-01-10T19:20:06.837Z,0.40
2018-01-10T19:22:34.593Z,0.40
2018-01-10T19:25:02.303Z,0.50
2018-01-10T19:27:29.976Z,0.50
2018-01-10T19:29:57.621Z,0.50
2018-01-10T19:32:25.301Z,0.50
2018-01-10T19:34:52.955Z,0.60
2018-01-10T19:37:20.636Z,0.60
2018-01-10T19:39:49.100Z,0.30
2018-01-10T19:42:16.749Z,0.30
2018-01-10T19:44:44.384Z,0.30
2018-01-10T19:47:12.077Z,0.30
2018-01-10T19:49:39.709Z,0.20
2018-01-10T19:52:07.369Z,0.30
2018-01-10T19:54:35.107Z,0.20
2018-01-10T19:57:02.854Z,0.30
2018-01-10T19:59:30.510Z,0.20
2018-01-10T20:01:58.158Z,0.10
2018-01-10T20:04:25.812Z,0.10
2018-01-10T20:06:53.477Z,0.20
2018-01-10T20:09:21.873Z,0.20
2018-01-10T20:11:49.559Z,0.20
2018-01-10T20:14:17.265Z,0.20
2018-01-10T20:16:44.897Z,0.20
2018-01-10T20:19:13.297Z,0.20
2018-01-10T20:21:41.124Z,0.20
2018-01-10T20:24:08.757Z,0.20
2018-01-10T20:26:36.392Z,0.20
2018-01-10T20:29:04.161Z,0.30
2018-01-10T20:31:32.566Z,0.20
2018-01-10T20:34:00.206Z,0.20
2018-01-10T20:36:28.650Z,0.10
2018-01-10T20:38:56.758Z,0.00
2018-01-10T20:41:25.173Z,0.00
2018-01-10T20:43:52.866Z,0.00
2018-01-10T20:46:20.497Z,0.00
2018-01-10T20:48:48.130Z,0.00
2018-01-10T20:51:15.786Z,-0.10
2018-01-10T20:53:43.490Z,0.00
2018-01-10T20:56:11.152Z,0.00
2018-01-10T20:58:38.809Z,-0.20
2018-01-10T21:01:06.449Z,-0.20
2018-01-10T21:03:34.129Z,-0.30
2018-01-10T21:06:01.770Z,-0.30
2018-01-10T21:08:29.431Z,-0.20
2018-01-10T21:10:57.113Z,-0.20
2018-01-10T21:13:24.766Z,-0.30
2018-01-10T21:15:52.430Z,-0.30
2018-01-10T21:18:20.113Z,-0.30
2018-01-10T21:20:47.756Z,-0.30
2018-01-10T21:23:15.420Z,-0.30
2018-01-10T21:25:43.101Z,-0.20
2018-01-10T21:28:10.750Z,-0.10
2018-01-10T21:30:38.385Z,-0.10
2018-01-10T21:33:06.049Z,-0.20
2018-01-10T21:35:33.688Z,-0.30
2018-01-10T21:38:01.325Z,-0.40
2018-01-10T21:40:29.792Z,-0.50
2018-01-10T21:42:57.452Z,-0.50
2018-01-10T21:45:25.084Z,-0.50
2018-01-10T21:47:52.747Z,-0.40
2018-01-10T21:50:20.392Z,-0.40
2018-01-10T21:52:48.055Z,-0.40
2018-01-10T21:55:15.745Z,-0.40
2018-01-10T21:57:43.387Z,-0.40
2018-01-10T22:00:11.027Z,-0.50
2018-01-10T22:02:38.708Z,-0.50
2018-01-10T22:05:06.355Z,-0.40
2018-01-10T22:07:34.074Z,-0.40
2018-01-10T22:10:02.482Z,-0.50
2018-01-10T22:12:30.139Z,-0.50
2018-01-10T22:14:57.830Z,-0.50
2018-01-10T22:17:25.513Z,-0.50
2018-01-10T22:19:53.942Z,-0.50
2018-01-10T22:22:21.618Z,-0.50
2018-01-10T22:24:49.250Z,-0.50
2018-01-10T22:27:16.896Z,-0.50
2018-01-10T22:29:45.352Z,-0.60
2018-01-10T22:32:12.996Z,-0.60
2018-01-10T22:34:40.637Z,-0.60
2018-01-10T22:37:08.314Z,-0.70
2018-01-10T22:39:35.989Z,-0.80
2018-01-10T22:42:03.669Z,-0.70
2018-01-10T22:44:32.091Z,-0.70
2018-01-10T22:46:59.737Z,-0.70
2018-01-10T22:49:27.425Z,-0.60
2018-01-10T22:51:55.075Z,-0.60
2018-01-10T22:54:22.726Z,-0.60
2018-01-10T22:56:50.392Z,-0.70
2018-01-10T22:59:18.093Z,-0.60
2018-01-10T23:01:45.750Z,-0.70
2018-01-10T23:04:13.389Z,-0.70
2018-01-10T23:06:41.082Z,-0.80
2018-01-10T23:09:08.729Z,-0.80
2018-01-10T23:11:36.374Z,-0.80
2018-01-10T23:14:04.140Z,-0.80
2018-01-10T23:16:32.590Z,-0.80
2018-01-10T23:19:00.235Z,-0.80
2018-01-10T23:21:27.913Z,-0.80
2018-01-10T23:23:55.570Z,-0.70
2018-01-10T23:26:23.369Z,-0.70
2018-01-10T23:28:51.021Z,-0.80
